.
WxDataArchive / Data Records for 2014-06-25
2014-06-24 June 2014 2014-06-26

Data Records for Wednesday, 25 June 2014

Time	Temp	Chill	HIndex	Humid	Dewpt	 Wind 	HiWind	WindDir	Rain 	Barom
-----	----	-----	------	-----	-----	------	------	-------	-----	-----
00:00	68.6	68.6	68.6	94	66.8	0	0	---	0.00	29.846 
00:05	68.6	68.6	68.6	94	66.8	0	0	---	0.00	29.846 
00:10	68.4	68.4	68.4	94	66.6	0	0	---	0.00	29.846 
00:15	68.4	68.4	68.4	94	66.6	0	0	---	0.00	29.849 
00:20	68.3	68.3	68.3	94	66.5	0	0	---	0.00	29.849 
00:25	68.3	68.3	68.3	94	66.5	0	0	---	0.00	29.849 
00:30	68.3	68.3	68.3	94	66.5	0	0	---	0.00	29.854 
00:35	68.1	68.1	68.1	95	66.6	0	0	---	0.00	29.854 
00:40	68.1	68.1	68.1	95	66.6	0	0	---	0.00	29.854 
00:45	68.3	68.3	68.3	95	66.8	0	0	---	0.00	29.860 
00:50	68.3	68.3	68.3	95	66.8	0	0	---	0.00	29.860 
00:55	68.3	68.3	68.3	95	66.8	0	0	---	0.00	29.860 
01:00	68.3	68.3	68.3	95	66.8	0	0	---	0.00	29.861 
01:05	68.3	68.3	68.3	95	66.8	0	0	---	0.00	29.861 
01:10	68.3	68.3	68.3	95	66.8	0	0	---	0.00	29.861 
01:15	68.3	68.3	68.3	95	66.8	0	0	---	0.00	29.856 
01:20	68.3	68.3	68.3	95	66.8	0	0	---	0.00	29.856 
01:25	68.1	68.1	68.1	95	66.6	0	0	---	0.00	29.856 
01:30	68.1	68.1	68.1	95	66.6	0	0	---	0.00	29.854 
01:35	68.1	68.1	68.1	95	66.6	0	0	---	0.00	29.854 
01:40	67.9	67.9	67.9	95	66.4	0	0	---	0.00	29.854 
01:45	67.9	67.9	67.9	95	66.4	0	0	---	0.00	29.847 
01:50	67.8	67.8	67.8	95	66.3	0	0	---	0.00	29.847 
01:55	67.8	67.8	67.8	95	66.3	0	0	---	0.00	29.847 
02:00	67.9	67.9	67.9	95	66.4	0	0	---	0.00	29.854 
02:05	67.9	67.9	67.9	95	66.4	0	0	---	0.00	29.854 
02:10	67.8	67.8	67.8	95	66.3	0	0	---	0.00	29.854 
02:15	67.8	67.8	67.8	95	66.3	0	0	---	0.00	29.855 
02:20	67.9	67.9	67.9	95	66.4	0	0	---	0.00	29.855 
02:25	67.9	67.9	67.9	95	66.4	0	0	---	0.00	29.855 
02:30	67.9	67.9	67.9	95	66.4	0	0	---	0.00	29.854 
02:35	67.9	67.9	67.9	95	66.4	0	0	---	0.00	29.854 
02:40	68.1	68.1	68.1	95	66.6	0	0	---	0.00	29.854 
02:45	68.1	68.1	68.1	96	66.9	0	0	---	0.00	29.857 
02:50	68.3	68.3	68.3	95	66.8	0	0	---	0.00	29.857 
02:55	68.3	68.3	68.3	96	67.1	0	0	---	0.00	29.857 
03:00	68.3	68.3	68.3	96	67.1	0	0	---	0.00	29.852 
03:05	68.1	68.1	68.1	95	66.6	0	0	---	0.00	29.852 
03:10	68.1	68.1	68.1	96	66.9	0	0	---	0.00	29.852 
03:15	67.9	67.9	67.9	95	66.4	0	0	---	0.00	29.848 
03:20	67.9	67.9	67.9	95	66.4	0	0	---	0.00	29.848 
03:25	67.8	67.8	67.8	95	66.3	0	0	---	0.00	29.848 
03:30	67.6	67.6	67.6	96	66.4	0	0	---	0.00	29.842 
03:35	67.4	67.4	67.4	96	66.2	0	0	---	0.00	29.842 
03:40	67.3	67.3	67.3	96	66.1	0	0	---	0.00	29.842 
03:45	67.3	67.3	67.3	96	66.1	0	0	---	0.00	29.846 
03:50	67.1	67.1	67.1	96	65.9	0	0	---	0.00	29.846 
03:55	67.1	67.1	67.1	96	65.9	0	0	---	0.00	29.846 
04:00	66.8	66.8	66.8	96	65.6	0	0	---	0.00	29.846 
04:05	66.8	66.8	66.8	96	65.6	0	0	---	0.00	29.846 
04:10	66.6	66.6	66.6	96	65.4	0	0	---	0.00	29.846 
04:15	66.6	66.6	66.6	96	65.4	0	0	---	0.00	29.849 
04:20	66.4	66.4	66.4	96	65.2	0	0	---	0.00	29.849 
04:25	66.4	66.4	66.4	96	65.2	0	0	---	0.00	29.849 
04:30	66.3	66.3	66.3	96	65.1	0	0	---	0.00	29.845 
04:35	66.3	66.3	66.3	96	65.1	0	0	---	0.00	29.845 
04:40	66.3	66.3	66.3	96	65.1	0	0	---	0.00	29.845 
04:45	66.3	66.3	66.3	96	65.1	0	0	---	0.00	29.845 
04:50	66.1	66.1	66.1	96	64.9	0	0	---	0.00	29.845 
04:55	66.0	66.0	66.0	96	64.8	0	0	---	0.00	29.845 
05:00	66.0	66.0	66.0	96	64.8	0	0	---	0.00	29.849 
05:05	65.8	65.8	65.8	96	64.6	0	0	---	0.00	29.849 
05:10	65.8	65.8	65.8	96	64.6	0	0	---	0.00	29.849 
05:15	65.8	65.8	65.8	96	64.6	0	0	---	0.00	29.856 
05:20	65.8	65.8	65.8	96	64.6	0	0	---	0.00	29.856 
05:25	65.8	65.8	65.8	96	64.6	0	0	---	0.00	29.856 
05:30	66.0	66.0	66.0	96	64.8	0	0	---	0.00	29.860 
05:35	66.1	66.1	66.1	96	64.9	0	0	---	0.00	29.860 
05:40	66.1	66.1	66.1	96	64.9	0	0	---	0.00	29.860 
05:45	66.3	66.3	66.3	96	65.1	0	0	---	0.00	29.856 
05:50	66.3	66.3	66.3	96	65.1	0	0	---	0.00	29.856 
05:55	66.4	66.4	66.4	96	65.2	0	0	---	0.00	29.856 
06:00	66.4	66.4	66.4	96	65.2	0	0	---	0.00	29.860 
06:05	66.4	66.4	66.4	96	65.2	0	0	---	0.00	29.860 
06:10	66.8	66.8	66.8	96	65.6	0	0	---	0.00	29.860 
06:15	66.9	66.9	66.9	96	65.7	0	1	292	0.00	29.867 
06:20	67.1	67.1	67.1	96	65.9	0	1	292	0.00	29.867 
06:25	67.3	67.3	67.3	96	66.1	0	0	---	0.00	29.867 
06:30	67.3	67.3	67.3	96	66.1	0	1	292	0.00	29.875 
06:35	67.4	67.4	67.4	96	66.2	0	1	292	0.00	29.875 
06:40	67.4	67.4	67.4	96	66.2	0	1	292	0.00	29.875 
06:45	67.6	67.6	67.6	96	66.4	0	1	292	0.00	29.882 
06:50	67.6	67.6	67.6	96	66.4	0	1	292	0.00	29.882 
06:55	67.6	67.6	67.6	96	66.4	0	0	---	0.00	29.882 
07:00	67.4	67.4	67.4	96	66.2	0	2	292	0.00	29.887 
07:05	67.6	67.6	67.6	96	66.4	0	1	292	0.00	29.887 
07:10	67.6	67.6	67.6	96	66.4	0	1	292	0.00	29.887 
07:15	67.6	67.6	67.6	96	66.4	0	1	292	0.00	29.889 
07:20	67.6	67.6	67.6	96	66.4	0	2	292	0.00	29.889 
07:25	67.6	67.6	67.6	96	66.4	0	2	292	0.00	29.889 
07:30	67.6	67.6	67.6	96	66.4	0	1	292	0.00	29.892 
07:35	67.6	67.6	67.6	96	66.4	0	2	292	0.00	29.892 
07:40	67.6	67.6	67.6	96	66.4	0	2	292	0.00	29.892 
07:45	67.6	67.6	67.6	96	66.4	0	0	---	0.00	29.895 
07:50	67.8	67.8	67.8	96	66.6	0	0	---	0.00	29.895 
07:55	67.8	67.8	67.8	96	66.6	0	1	292	0.00	29.895 
08:00	67.9	67.9	67.9	96	66.7	0	1	292	0.00	29.903 
08:05	67.9	67.9	67.9	96	66.7	0	2	292	0.00	29.903 
08:10	67.9	67.9	67.9	96	66.7	0	1	292	0.00	29.903 
08:15	67.9	67.9	67.9	96	66.7	0	0	---	0.00	29.907 
08:20	67.9	67.9	67.9	96	66.7	0	1	292	0.00	29.907 
08:25	68.1	68.1	68.1	96	66.9	0	1	292	0.00	29.907 
08:30	68.3	68.3	68.3	96	67.1	0	0	---	0.00	29.910 
08:35	68.3	68.3	68.3	96	67.1	0	0	---	0.00	29.910 
08:40	68.4	68.4	68.4	96	67.2	0	1	292	0.00	29.910 
08:45	68.6	68.6	68.6	96	67.4	0	0	---	0.00	29.910 
08:50	68.8	68.8	68.8	96	67.6	0	1	292	0.00	29.910 
08:55	69.1	69.1	69.1	96	67.9	0	1	292	0.00	29.910 
09:00	68.9	68.9	68.9	96	67.7	0	1	292	0.00	29.909 
09:05	69.1	69.1	69.1	96	67.9	0	1	292	0.00	29.909 
09:10	69.4	69.4	69.4	96	68.2	0	1	292	0.00	29.909 
09:15	69.6	69.6	69.6	96	68.4	0	1	292	0.00	29.909 
09:20	69.8	69.8	69.8	96	68.6	0	1	292	0.00	29.909 
09:25	70.1	70.1	70.1	96	68.9	0	1	292	0.00	29.909 
09:30	70.3	70.3	70.3	96	69.1	0	3	292	0.00	29.914 
09:35	70.9	70.9	70.9	96	69.7	0	1	292	0.00	29.914 
09:40	71.3	71.3	71.3	96	70.1	0	1	292	0.00	29.914 
09:45	71.6	71.6	71.6	95	70.1	0	1	292	0.00	29.917 
09:50	72.0	72.0	72.0	95	70.5	0	2	292	0.00	29.917 
09:55	72.1	72.1	72.1	94	70.3	0	1	292	0.00	29.917 
10:00	72.1	72.1	72.1	93	70.0	0	1	292	0.00	29.919 
10:05	72.5	72.5	72.5	93	70.4	0	1	292	0.00	29.919 
10:10	72.7	72.7	72.7	92	70.2	0	2	292	0.00	29.919 
10:15	73.2	73.2	73.2	92	70.7	0	0	---	0.00	29.921 
10:20	73.3	73.3	73.3	89	69.9	0	4	292	0.00	29.921 
10:25	73.7	73.7	73.7	88	69.9	0	2	292	0.00	29.921 
10:30	74.4	74.4	74.4	86	69.9	0	3	292	0.00	29.920 
10:35	74.4	74.4	74.4	84	69.2	0	1	292	0.00	29.920 
10:40	74.7	74.7	74.7	82	68.8	0	3	292	0.00	29.920 
10:45	74.9	74.9	74.9	81	68.7	0	2	292	0.00	29.917 
10:50	75.1	75.1	75.6	81	68.9	0	1	292	0.00	29.917 
10:55	76.0	76.0	76.8	82	70.1	0	1	292	0.00	29.917 
11:00	76.7	76.7	78.2	77	68.9	0	2	292	0.00	29.914 
11:05	76.8	76.8	78.4	76	68.6	0	2	292	0.00	29.914 
11:10	77.2	77.2	79.0	73	67.9	0	3	292	0.00	29.914 
11:15	77.6	77.6	79.5	73	68.2	0	2	292	0.00	29.914 
11:20	77.9	77.9	80.0	75	69.3	0	2	292	0.00	29.914 
11:25	78.6	78.6	81.0	73	69.2	0	2	292	0.00	29.914 
11:30	78.8	78.8	81.1	69	67.7	0	2	292	0.00	29.915 
11:35	78.8	78.8	81.1	69	67.7	1	3	292	0.00	29.915 
11:40	79.0	79.0	81.3	69	67.9	0	2	292	0.00	29.915 
11:45	78.8	78.8	81.1	69	67.7	0	2	292	0.00	29.915 
11:50	79.0	79.0	81.6	72	69.2	0	2	292	0.00	29.915 
11:55	79.4	79.4	81.9	69	68.3	1	4	292	0.00	29.915 
12:00	79.6	79.6	82.0	67	67.7	1	4	292	0.00	29.913 
12:05	79.4	79.4	81.6	65	66.6	1	4	292	0.00	29.913 
12:10	79.4	79.4	81.6	66	67.0	0	1	292	0.00	29.913 
12:15	79.6	79.6	82.0	67	67.7	0	2	292	0.00	29.914 
12:20	79.8	79.8	82.4	68	68.3	0	2	292	0.00	29.914 
12:25	79.4	79.4	81.8	68	67.9	1	3	292	0.00	29.914 
12:30	79.4	79.4	81.6	66	67.0	1	2	292	0.00	29.913 
12:35	79.4	79.4	81.6	66	67.0	1	4	292	0.00	29.913 
12:40	79.2	79.2	81.7	70	68.5	2	5	270	0.00	29.913 
12:45	79.6	79.6	82.6	73	70.2	2	4	270	0.00	29.915 
12:50	80.1	80.1	83.0	69	69.0	1	4	270	0.00	29.915 
12:55	80.3	80.3	83.2	68	68.8	1	4	292	0.00	29.915 
13:00	80.5	80.5	83.3	67	68.5	1	4	292	0.00	29.912 
13:05	80.9	80.9	83.8	66	68.4	1	4	292	0.00	29.912 
13:10	80.9	80.9	83.4	63	67.1	1	3	292	0.00	29.912 
13:15	80.9	80.9	83.5	64	67.6	1	2	292	0.00	29.910 
13:20	80.5	80.5	82.8	63	66.7	1	4	292	0.00	29.910 
13:25	80.9	80.9	83.5	64	67.6	2	4	292	0.00	29.910 
13:30	81.2	81.2	83.6	62	66.9	1	3	292	0.00	29.906 
13:35	81.4	81.4	83.8	61	66.6	1	5	292	0.00	29.906 
13:40	80.9	80.9	83.4	63	67.1	1	4	315	0.00	29.906 
13:45	80.9	80.9	83.5	64	67.6	0	2	315	0.00	29.902 
13:50	81.4	81.4	83.8	61	66.6	1	4	315	0.00	29.902 
13:55	81.6	81.6	84.2	62	67.3	1	3	315	0.00	29.902 
14:00	81.4	81.4	83.6	60	66.2	1	3	315	0.00	29.900 
14:05	81.8	81.8	84.7	63	67.9	1	4	315	0.00	29.900 
14:10	82.0	82.0	84.4	60	66.7	1	3	315	0.00	29.900 
14:15	82.4	82.4	84.8	59	66.6	1	4	315	0.00	29.898 
14:20	82.4	82.4	84.1	55	64.6	2	4	315	0.00	29.898 
14:25	82.6	82.6	84.7	57	65.8	1	4	315	0.00	29.898 
14:30	82.4	82.4	84.4	57	65.6	1	3	315	0.00	29.897 
14:35	82.0	82.0	84.1	58	65.7	0	2	315	0.00	29.897 
14:40	82.6	82.6	84.7	57	65.8	2	4	315	0.00	29.897 
14:45	82.6	82.6	84.5	56	65.3	1	4	315	0.00	29.897 
14:50	82.2	82.2	84.2	57	65.4	1	4	315	0.00	29.897 
14:55	82.6	82.6	84.3	55	64.8	2	5	315	0.00	29.897 
15:00	83.0	83.0	85.3	57	66.2	1	4	292	0.00	29.897 
15:05	83.0	83.0	84.7	54	64.6	2	4	338	0.00	29.897 
15:10	83.0	83.0	84.9	55	65.1	2	4	338	0.00	29.897 
15:15	83.4	83.4	85.2	54	65.0	1	3	292	0.00	29.898 
15:20	83.6	83.6	85.5	54	65.2	1	4	292	0.00	29.898 
15:25	84.0	84.0	85.6	52	64.4	2	5	292	0.00	29.898 
15:30	84.0	84.0	86.0	54	65.5	1	4	292	0.00	29.899 
15:35	84.1	84.1	85.3	50	63.4	2	4	315	0.00	29.899 
15:40	84.1	84.1	85.5	51	64.0	3	5	315	0.00	29.899 
15:45	84.0	84.0	85.1	50	63.3	3	5	315	0.00	29.900 
15:50	83.8	83.8	85.3	52	64.3	1	3	315	0.00	29.900 
15:55	83.4	83.4	85.0	53	64.4	1	5	315	0.00	29.900 
16:00	83.2	83.2	84.7	53	64.3	2	4	292	0.00	29.899 
16:05	83.0	83.0	84.7	54	64.6	1	3	292	0.00	29.899 
16:10	83.2	83.2	84.9	54	64.8	0	3	292	0.00	29.899 
16:15	83.8	83.8	85.7	54	65.3	0	1	292	0.00	29.897 
16:20	84.1	84.1	85.9	53	65.1	1	3	292	0.00	29.897 
16:25	84.5	84.5	86.0	51	64.4	1	3	292	0.00	29.897 
16:30	84.7	84.7	85.6	48	62.8	1	3	292	0.00	29.891 
16:35	84.9	84.9	85.6	47	62.4	1	3	292	0.00	29.891 
16:40	84.7	84.7	85.6	48	62.8	1	4	292	0.00	29.891 
16:45	84.7	84.7	85.6	48	62.8	1	4	292	0.00	29.885 
16:50	84.3	84.3	85.3	49	63.0	1	3	292	0.00	29.885 
16:55	84.3	84.3	85.7	51	64.2	0	2	292	0.00	29.885 
17:00	84.0	84.0	85.1	50	63.3	1	2	292	0.00	29.889 
17:05	84.0	84.0	85.3	51	63.9	1	2	292	0.00	29.889 
17:10	83.4	83.4	84.2	49	62.2	1	4	292	0.00	29.889 
17:15	82.8	82.8	83.7	50	62.2	1	4	292	0.00	29.897 
17:20	81.6	81.6	83.2	56	64.4	2	6	315	0.00	29.897 
17:25	80.5	80.5	82.2	58	64.3	2	4	315	0.00	29.897 
17:30	79.9	79.9	81.5	58	63.8	1	4	315	0.00	29.903 
17:35	79.6	79.6	81.2	58	63.5	1	6	315	0.00	29.903 
17:40	79.4	79.4	81.1	60	64.3	1	3	315	0.00	29.903 
17:45	79.2	79.2	80.8	59	63.6	2	5	315	0.00	29.904 
17:50	78.1	78.1	79.8	60	63.1	4	9	315	0.00	29.904 
17:55	77.2	77.2	79.0	62	63.2	3	6	292	0.00	29.904 
18:00	76.7	76.7	78.5	64	63.6	1	4	292	0.00	29.913 
18:05	76.7	76.7	78.5	66	64.5	1	3	292	0.00	29.913 
18:10	77.2	77.2	79.0	66	64.9	2	5	0	0.00	29.913 
18:15	77.7	77.7	79.4	62	63.6	2	5	338	0.00	29.907 
18:20	78.1	78.1	79.9	63	64.5	2	4	315	0.00	29.907 
18:25	78.1	78.1	79.8	61	63.5	1	3	315	0.00	29.907 
18:30	77.9	77.9	79.6	62	63.8	1	3	315	0.00	29.909 
18:35	77.4	77.4	79.2	64	64.2	1	3	315	0.00	29.909 
18:40	77.2	77.2	79.0	65	64.5	0	2	315	0.00	29.909 
18:45	77.4	77.4	79.2	64	64.2	1	3	315	0.00	29.911 
18:50	77.7	77.7	79.4	60	62.7	1	3	315	0.00	29.911 
18:55	77.9	77.9	79.6	60	62.9	0	2	315	0.00	29.911 
19:00	78.1	78.1	79.8	61	63.5	0	1	315	0.00	29.915 
19:05	78.5	78.5	80.1	59	63.0	1	3	315	0.00	29.915 
19:10	78.6	78.6	80.2	59	63.1	1	4	315	0.00	29.915 
19:15	78.8	78.8	80.5	60	63.7	0	2	315	0.00	29.914 
19:20	78.8	78.8	80.4	59	63.2	1	3	315	0.00	29.914 
19:25	78.8	78.8	80.5	60	63.7	1	3	315	0.00	29.914 
19:30	78.8	78.8	80.4	59	63.2	1	3	315	0.00	29.910 
19:35	78.6	78.6	80.3	60	63.5	0	2	315	0.00	29.910 
19:40	78.8	78.8	80.5	61	64.2	0	1	315	0.00	29.910 
19:45	78.8	78.8	80.6	62	64.7	0	1	315	0.00	29.915 
19:50	78.6	78.6	80.4	62	64.5	0	2	315	0.00	29.915 
19:55	78.6	78.6	80.4	62	64.5	0	2	315	0.00	29.915 
20:00	78.5	78.5	80.3	63	64.8	1	3	315	0.00	29.917 
20:05	78.3	78.3	80.2	64	65.1	0	1	315	0.00	29.917 
20:10	78.1	78.1	80.0	65	65.4	0	1	315	0.00	29.917 
20:15	78.1	78.1	79.9	64	64.9	0	2	315	0.00	29.919 
20:20	77.9	77.9	79.7	64	64.7	0	1	315	0.00	29.919 
20:25	77.7	77.7	79.5	64	64.5	0	1	315	0.00	29.919 
20:30	77.7	77.7	79.5	65	65.0	0	0	---	0.00	29.920 
20:35	77.6	77.6	79.4	65	64.9	0	1	315	0.00	29.920 
20:40	77.2	77.2	79.0	66	64.9	0	0	---	0.00	29.920 
20:45	77.0	77.0	78.8	67	65.2	0	0	---	0.00	29.918 
20:50	76.7	76.7	78.5	67	64.9	0	0	---	0.00	29.918 
20:55	76.5	76.5	78.3	68	65.1	0	0	---	0.00	29.918 
21:00	76.1	76.1	77.8	69	65.2	0	0	---	0.00	29.921 
21:05	76.0	76.0	77.7	70	65.5	0	0	---	0.00	29.921 
21:10	75.6	75.6	77.2	71	65.5	0	0	---	0.00	29.921 
21:15	75.3	75.3	76.9	71	65.2	0	0	---	0.00	29.920 
21:20	75.1	75.1	76.6	72	65.4	0	0	---	0.00	29.920 
21:25	74.7	74.7	74.7	73	65.5	0	0	---	0.00	29.920 
21:30	74.6	74.6	74.6	73	65.4	0	0	---	0.00	29.926 
21:35	74.2	74.2	74.2	74	65.4	0	0	---	0.00	29.926 
21:40	74.0	74.0	74.0	74	65.2	0	0	---	0.00	29.926 
21:45	73.7	73.7	73.7	75	65.3	0	0	---	0.00	29.928 
21:50	73.3	73.3	73.3	76	65.3	0	0	---	0.00	29.928 
21:55	73.2	73.2	73.2	77	65.5	0	0	---	0.00	29.928 
22:00	73.0	73.0	73.0	78	65.7	0	0	---	0.00	29.935 
22:05	72.7	72.7	72.7	78	65.4	0	0	---	0.00	29.935 
22:10	72.5	72.5	72.5	80	66.0	0	0	---	0.00	29.935 
22:15	72.3	72.3	72.3	80	65.8	0	0	---	0.00	29.934 
22:20	72.1	72.1	72.1	81	65.9	0	0	---	0.00	29.934 
22:25	72.0	72.0	72.0	81	65.8	0	0	---	0.00	29.934 
22:30	71.8	71.8	71.8	82	66.0	0	0	---	0.00	29.945 
22:35	71.6	71.6	71.6	83	66.2	0	0	---	0.00	29.945 
22:40	71.5	71.5	71.5	83	66.1	0	0	---	0.00	29.945 
22:45	71.3	71.3	71.3	83	65.9	0	0	---	0.00	29.951 
22:50	71.1	71.1	71.1	84	66.0	0	0	---	0.00	29.951 
22:55	71.1	71.1	71.1	84	66.0	0	0	---	0.00	29.951 
23:00	70.9	70.9	70.9	85	66.2	0	0	---	0.00	29.950 
23:05	70.8	70.8	70.8	85	66.1	0	0	---	0.00	29.950 
23:10	70.6	70.6	70.6	86	66.2	0	0	---	0.00	29.950 
23:15	70.4	70.4	70.4	87	66.3	0	0	---	0.00	29.957 
23:20	70.3	70.3	70.3	87	66.2	0	0	---	0.00	29.957 
23:25	70.4	70.4	70.4	87	66.3	0	0	---	0.00	29.957 
23:30	70.6	70.6	70.6	88	66.9	0	1	315	0.00	29.962 
23:35	70.8	70.8	70.8	87	66.7	0	2	315	0.00	29.962 
23:40	70.8	70.8	70.8	86	66.4	0	2	22	0.00	29.962 
23:45	70.3	70.3	70.3	84	65.2	1	5	90	0.00	29.970 
23:50	69.9	69.9	69.9	83	64.5	1	3	135	0.00	29.970 
23:55	69.8	69.8	69.8	83	64.4	1	3	112	0.00	29.970 

CoCoRaHS
IN-AL-39
A2 Web Hosting
Creative Commons License
GoDaddy
search engine by freefind advanced

loaded 2018-11-12 15:14:26 • last modified 2010-11-18 10:43:29
Privacy PolicyDisclaimer
• wx.awcolley.com is powered by PmWiki v.2002016 •
• all content (unless otherwise noted) © 2018 A W Colley